Time;durP1;ratioP1;P1;durP2;ratioP2;P2;SDS_P1;SDS_P2;PMS_P1;PMS_P2;Temp;Humidity;BMP_temperature;BMP_pressure;BME280_temperature;BME280_humidity;BME280_pressure;Samples;Min_cycle;Max_cycle;Signal;HPM_P1;HPM_P2
2021/05/21 00:01:35;;;;;;;5.30;3.10;;;;;;;12.55;100.00;99572.82;1722211;81;21713;-71
2021/05/21 00:04:04;;;;;;;5.83;2.97;;;;;;;12.56;100.00;99566.57;1719210;82;21727;-69
2021/05/21 00:06:30;;;;;;;5.07;3.17;;;;;;;12.58;100.00;99571.89;1712308;83;21652;-71
2021/05/21 00:08:58;;;;;;;7.63;3.83;;;;;;;12.59;100.00;99560.92;1706078;82;21735;-71
2021/05/21 00:11:24;;;;;;;4.77;2.90;;;;;;;12.58;100.00;99560.64;1709136;83;22214;-72
2021/05/21 00:13:51;;;;;;;3.90;2.50;;;;;;;12.58;100.00;99560.64;1707972;83;21655;-72
2021/05/21 00:16:19;;;;;;;5.03;3.17;;;;;;;12.58;100.00;99556.72;1705145;83;21723;-73
2021/05/21 00:18:51;;;;;;;4.83;3.20;;;;;;;12.60;100.00;99552.85;1702729;83;22287;-64
2021/05/21 00:21:19;;;;;;;5.40;3.50;;;;;;;12.63;100.00;99533.33;1713029;83;23234;-72
2021/05/21 00:23:46;;;;;;;6.50;3.60;;;;;;;12.65;100.00;99536.52;1709563;83;22246;-71
2021/05/21 00:26:12;;;;;;;5.70;3.40;;;;;;;12.69;100.00;99544.25;1709978;83;21776;-72
2021/05/21 00:28:39;;;;;;;7.07;4.07;;;;;;;12.73;100.00;99545.42;1706510;83;21684;-64
2021/05/21 00:31:05;;;;;;;7.37;3.57;;;;;;;12.77;100.00;99545.29;1705287;83;21705;-63
2021/05/21 00:33:32;;;;;;;5.40;3.47;;;;;;;12.82;100.00;99543.33;1706549;83;21834;-73
2021/05/21 00:35:58;;;;;;;5.03;3.63;;;;;;;12.82;100.00;99544.13;1704083;83;21104;-73
2021/05/21 00:38:26;;;;;;;7.13;3.90;;;;;;;12.86;100.00;99530.91;1704508;82;21652;-73
2021/05/21 00:40:53;;;;;;;6.60;4.30;;;;;;;12.91;100.00;99531.05;1712409;83;21610;-75
2021/05/21 00:43:19;;;;;;;6.03;3.43;;;;;;;12.95;100.00;99523.58;1704443;83;21676;-73
2021/05/21 00:45:46;;;;;;;5.77;3.70;;;;;;;12.96;100.00;99513.42;1714148;83;21047;-73
2021/05/21 00:48:12;;;;;;;7.97;4.70;;;;;;;13.00;100.00;99508.05;1706819;83;20902;-74
2021/05/21 00:50:39;;;;;;;5.90;4.07;;;;;;;13.03;100.00;99502.88;1705235;82;21626;-73
2021/05/21 00:53:06;;;;;;;5.90;4.03;;;;;;;13.05;100.00;99505.58;1715020;83;21541;-73
2021/05/21 00:55:33;;;;;;;6.63;4.00;;;;;;;13.05;100.00;99494.31;1677314;83;21008;-74
2021/05/21 00:58:01;;;;;;;5.27;3.87;;;;;;;13.05;100.00;99495.11;1694553;83;21743;-75
2021/05/21 01:00:28;;;;;;;5.50;4.40;;;;;;;13.04;100.00;99488.28;1696012;83;21016;-71
2021/05/21 01:02:55;;;;;;;5.80;3.30;;;;;;;13.03;100.00;99489.31;1708752;83;20981;-62
2021/05/21 01:05:22;;;;;;;5.10;2.87;;;;;;;13.00;100.00;99486.33;1718658;81;21558;-71
2021/05/21 01:07:49;;;;;;;5.37;3.60;;;;;;;13.00;100.00;99486.33;1717079;81;21088;-75
2021/05/21 01:10:17;;;;;;;6.67;3.30;;;;;;;12.99;100.00;99485.50;1717896;82;21089;-74
2021/05/21 01:12:45;;;;;;;4.50;2.90;;;;;;;12.99;100.00;99493.86;1720235;81;21436;-74
2021/05/21 01:15:14;;;;;;;5.30;2.57;;;;;;;13.01;100.00;99483.99;1718895;81;20948;-73
2021/05/21 01:17:40;;;;;;;6.40;2.70;;;;;;;13.05;100.00;99482.02;1717083;81;22456;-67
2021/05/21 01:20:09;;;;;;;3.57;2.50;;;;;;;13.11;100.00;99470.70;1721085;81;21095;-75
2021/05/21 01:22:36;;;;;;;4.27;2.80;;;;;;;13.17;100.00;99469.02;1723582;81;21131;-74
2021/05/21 01:25:04;;;;;;;5.43;3.07;;;;;;;13.24;100.00;99461.91;1717979;81;21655;-73
2021/05/21 01:27:31;;;;;;;4.60;2.10;;;;;;;13.29;100.00;99460.73;1720373;81;21096;-63
2021/05/21 01:29:57;;;;;;;4.83;2.93;;;;;;;13.32;100.00;99462.92;1722958;82;21032;-73
2021/05/21 01:32:25;;;;;;;6.57;3.23;;;;;;;13.39;100.00;99454.99;1725592;81;21633;-73
2021/05/21 01:34:51;;;;;;;4.23;2.60;;;;;;;13.44;100.00;99445.95;1719213;81;21681;-73
2021/05/21 01:37:19;;;;;;;5.20;2.43;;;;;;;13.53;100.00;99422.91;1720251;81;21047;-61
2021/05/21 01:39:49;;;;;;;2.90;2.07;;;;;;;13.53;100.00;99422.91;1724203;81;22592;-72
2021/05/21 01:42:17;;;;;;;3.80;2.03;;;;;;;13.54;100.00;99428.42;1718164;81;20929;-73
2021/05/21 01:44:43;;;;;;;3.53;2.20;;;;;;;13.53;100.00;99422.91;1718176;81;21095;-71
2021/05/21 01:47:11;;;;;;;4.13;2.30;;;;;;;13.50;100.00;99416.80;1723697;81;21151;-63
2021/05/21 01:49:42;;;;;;;6.27;2.90;;;;;;;13.48;100.00;99413.59;1720234;81;21032;-72
2021/05/21 01:52:08;;;;;;;8.07;3.30;;;;;;;13.45;100.00;99406.17;1720066;82;21529;-72
2021/05/21 01:54:37;;;;;;;5.57;2.90;;;;;;;13.47;100.00;99398.39;1718108;81;20970;-73
2021/05/21 01:57:04;;;;;;;5.47;3.00;;;;;;;13.50;100.00;99400.57;1722975;82;21072;-71
2021/05/21 01:59:32;;;;;;;3.63;2.47;;;;;;;13.55;100.00;99402.52;1722773;81;21068;-63
2021/05/21 02:02:00;;;;;;;3.97;2.70;;;;;;;13.59;100.00;99404.97;1722919;81;21091;-73
2021/05/21 02:04:39;;;;;;;4.40;3.50;;;;;;;13.62;100.00;99412.39;1718054;81;21566;-73
2021/05/21 02:07:07;;;;;;;7.20;2.80;;;;;;;13.64;100.00;99414.29;1693853;83;21050;-71
2021/05/21 02:09:45;;;;;;;6.27;3.07;;;;;;;13.65;100.00;99418.50;1704398;83;21666;-72
2021/05/21 02:12:12;;;;;;;5.70;3.43;;;;;;;13.67;100.00;99422.98;1702200;83;21091;-73
2021/05/21 02:14:39;;;;;;;5.73;3.20;;;;;;;13.72;100.00;99423.13;1713854;82;20953;-75
2021/05/21 02:17:06;;;;;;;4.53;2.73;;;;;;;13.73;100.00;99424.72;1662494;84;21127;-64
2021/05/21 02:19:33;;;;;;;5.93;2.97;;;;;;;13.81;100.00;99428.33;1709647;83;21136;-73
2021/05/21 02:22:00;;;;;;;6.77;3.13;;;;;;;14.03;100.00;99422.56;1706755;83;21193;-71
2021/05/21 02:24:27;;;;;;;5.00;3.20;;;;;;;14.22;100.00;99422.76;1710606;82;22236;-70
2021/05/21 02:26:53;;;;;;;7.10;3.20;;;;;;;14.32;100.00;99431.38;1703185;83;21132;-73
2021/05/21 02:29:20;;;;;;;4.87;2.70;;;;;;;14.39;100.00;99441.73;1702963;83;21100;-62
2021/05/21 02:31:47;;;;;;;7.63;3.07;;;;;;;14.58;100.00;99432.27;1706191;83;20997;-73
2021/05/21 02:34:14;;;;;;;3.40;2.23;;;;;;;14.76;100.00;99424.75;1703213;83;21032;-73
2021/05/21 02:36:41;;;;;;;4.60;2.77;;;;;;;14.83;100.00;99418.88;1707543;83;21049;-72
2021/05/21 02:39:07;;;;;;;4.70;3.30;;;;;;;14.88;100.00;99424.73;1705361;83;20992;-73
2021/05/21 02:41:34;;;;;;;4.00;2.97;;;;;;;15.00;100.00;99428.64;1690734;83;21114;-73
2021/05/21 02:44:01;;;;;;;5.90;2.77;;;;;;;15.25;100.00;99428.35;1707139;83;21049;-71
2021/05/21 02:46:28;;;;;;;5.50;3.10;;;;;;;15.55;100.00;99430.75;1705091;83;21056;-66
2021/05/21 02:48:55;;;;;;;8.93;3.50;;;;;;;15.80;100.00;99429.92;1706367;83;21218;-71
2021/05/21 02:51:22;;;;;;;13.70;3.13;;;;;;;16.35;100.00;99427.60;1703737;83;20980;-70
2021/05/21 02:53:49;;;;;;;5.63;3.03;;;;;;;17.01;100.00;99420.10;1700045;83;21078;-73
2021/05/21 02:56:15;;;;;;;6.40;2.40;;;;;;;17.62;100.00;99413.36;1701145;83;20937;-70
2021/05/21 02:58:42;;;;;;;11.77;3.17;;;;;;;18.28;100.00;99405.72;1694176;83;21044;-71
2021/05/21 03:01:09;;;;;;;3.87;2.60;;;;;;;18.68;100.00;99402.53;1729460;79;22227;-63
2021/05/21 03:03:36;;;;;;;4.37;2.67;;;;;;;19.01;100.00;99397.39;1809501;78;20977;-69
2021/05/21 03:06:03;;;;;;;4.83;2.33;;;;;;;19.60;100.00;99396.98;1817574;78;21464;-72
2021/05/21 03:08:30;;;;;;;3.50;2.20;;;;;;;20.34;100.00;99396.17;1789900;78;21641;-60
2021/05/21 03:10:58;;;;;;;6.63;2.50;;;;;;;21.21;100.00;99394.53;1816749;78;21714;-68
2021/05/21 03:13:26;;;;;;;3.30;2.50;;;;;;;21.99;100.00;99391.09;1789461;77;22219;-65
2021/05/21 03:15:53;;;;;;;5.67;2.80;;;;;;;22.57;100.00;99390.50;1817383;77;21003;-69
2021/05/21 03:18:23;;;;;;;5.07;3.03;;;;;;;23.02;100.00;99388.93;1791976;78;21126;-65
2021/05/21 03:20:49;;;;;;;3.80;2.77;;;;;;;23.34;100.00;99384.78;1825179;77;21151;-66
2021/05/21 03:23:17;;;;;;;4.67;2.50;;;;;;;23.43;100.00;99381.17;1791926;78;21016;-65
2021/05/21 03:25:43;;;;;;;3.67;2.40;;;;;;;23.44;100.00;99382.74;1816325;77;21087;-67
2021/05/21 03:28:11;;;;;;;4.30;2.20;;;;;;;23.62;100.00;99372.38;1818118;77;20953;-65
2021/05/21 03:30:38;;;;;;;4.45;2.33;;;;;;;23.98;100.00;99369.41;1790768;78;20980;-64
2021/05/21 03:33:06;;;;;;;3.55;2.33;;;;;;;24.15;100.00;99368.03;1817460;77;20993;-63
2021/05/21 03:35:35;;;;;;;4.87;2.25;;;;;;;24.25;100.00;99371.30;1790293;78;21097;-65
2021/05/21 03:38:04;;;;;;;5.05;2.50;;;;;;;24.27;100.00;99370.45;1817733;77;21068;-66
2021/05/21 03:40:32;;;;;;;5.28;2.35;;;;;;;24.66;100.00;99369.21;1790289;78;20985;-66
2021/05/21 03:42:59;;;;;;;5.03;2.35;;;;;;;25.35;100.00;99363.73;1816724;77;21075;-65
2021/05/21 03:45:25;;;;;;;4.35;2.50;;;;;;;25.73;94.12;99368.14;1790582;78;21100;-64
2021/05/21 03:47:52;;;;;;;3.67;2.62;;;;;;;25.60;86.67;99369.54;1811641;77;21624;-66
2021/05/21 03:50:21;;;;;;;4.20;2.42;;;;;;;24.87;92.71;99363.45;1791201;78;21075;-67
2021/05/21 03:52:48;;;;;;;6.03;2.37;;;;;;;24.16;99.92;99369.61;1816290;77;20917;-68
2021/05/21 03:55:15;;;;;;;4.17;2.10;;;;;;;23.34;100.00;99377.59;1786070;78;21028;-66
2021/05/21 03:57:42;;;;;;;4.13;2.10;;;;;;;22.67;100.00;99378.20;1817707;77;21109;-66
2021/05/21 04:00:12;;;;;;;2.55;1.67;;;;;;;22.56;100.00;99371.66;1789612;78;21064;-64
2021/05/21 04:02:39;;;;;;;5.03;2.10;;;;;;;23.13;100.00;99366.45;1784075;79;21035;-63
2021/05/21 04:05:07;;;;;;;3.55;2.10;;;;;;;24.26;100.00;99364.10;1787974;78;21600;-65
2021/05/21 04:07:34;;;;;;;4.65;2.33;;;;;;;25.21;100.00;99370.99;1786091;78;21084;-63
2021/05/21 04:10:02;;;;;;;3.20;1.82;;;;;;;25.76;96.84;99368.61;1787765;79;21976;-65
2021/05/21 04:12:28;;;;;;;3.50;2.25;;;;;;;26.01;92.74;99366.66;1752700;80;20953;-64
2021/05/21 04:14:55;;;;;;;2.77;2.20;;;;;;;26.32;90.57;99359.95;1755744;80;21040;-66
2021/05/21 04:17:24;;;;;;;5.95;2.40;;;;;;;26.76;83.41;99362.78;1755490;80;21012;-66
2021/05/21 04:19:51;;;;;;;3.22;1.92;;;;;;;27.02;80.78;99365.48;1789332;79;20972;-68
2021/05/21 04:22:18;;;;;;;3.85;1.95;;;;;;;27.13;78.35;99360.87;1755241;80;21003;-64
2021/05/21 04:24:44;;;;;;;3.15;1.60;;;;;;;27.15;76.31;99366.68;1750822;81;20960;-66
2021/05/21 04:27:11;;;;;;;3.83;1.45;;;;;;;26.96;69.44;99366.17;1763207;79;21095;-66
2021/05/21 04:29:38;;;;;;;3.05;1.72;;;;;;;26.44;75.86;99362.84;1763827;79;21004;-61
2021/05/21 04:32:06;;;;;;;4.05;1.92;;;;;;;26.33;81.43;99372.23;1761538;79;20980;-65
2021/05/21 04:34:33;;;;;;;3.80;1.80;;;;;;;26.22;76.89;99366.14;1764300;79;21585;-67
2021/05/21 04:37:00;;;;;;;3.33;1.80;;;;;;;25.73;78.92;99376.70;1764401;79;21601;-66
2021/05/21 04:39:27;;;;;;;5.92;1.85;;;;;;;25.16;84.81;99373.78;1764880;79;21049;-66
2021/05/21 04:41:54;;;;;;;4.92;2.00;;;;;;;24.79;93.23;99364.94;1763077;79;21000;-61
2021/05/21 04:44:21;;;;;;;5.10;1.95;;;;;;;24.77;96.27;99367.10;1762925;79;21099;-66
2021/05/21 04:46:47;;;;;;;2.52;1.42;;;;;;;24.72;95.87;99363.22;1785850;79;21673;-61
2021/05/21 04:49:32;;;;;;;2.58;1.62;;;;;;;24.43;98.52;99356.33;1788092;79;21056;-67
2021/05/21 04:52:01;;;;;;;2.77;1.37;;;;;;;24.21;100.00;99365.54;1824607;78;21096;-71
2021/05/21 04:54:28;;;;;;;1.40;1.10;;;;;;;24.25;100.00;99370.52;1788474;79;21048;-61
2021/05/21 04:56:55;;;;;;;2.80;1.50;;;;;;;24.28;100.00;99362.73;1787182;79;20980;-67
2021/05/21 04:59:21;;;;;;;4.40;1.42;;;;;;;24.37;100.00;99357.50;1768385;79;21593;-67
2021/05/21 05:01:48;;;;;;;3.45;1.52;;;;;;;24.81;100.00;99361.41;1767991;79;21032;-62
2021/05/21 05:04:15;;;;;;;2.72;1.70;;;;;;;25.46;96.27;99362.41;1765514;79;22618;-67
2021/05/21 05:06:42;;;;;;;3.47;1.20;;;;;;;26.07;82.08;99361.99;1763560;79;20984;-61
2021/05/21 05:09:10;;;;;;;4.55;1.57;;;;;;;26.30;80.35;99359.48;1811451;78;20929;-66
2021/05/21 05:11:40;;;;;;;3.55;1.47;;;;;;;26.62;73.71;99358.89;1792155;78;21024;-67
2021/05/21 05:14:09;;;;;;;2.80;1.47;;;;;;;26.81;75.11;99359.39;1791107;78;20941;-66
2021/05/21 05:16:36;;;;;;;4.05;1.52;;;;;;;27.27;72.15;99363.38;1791710;78;21766;-66
2021/05/21 05:19:04;;;;;;;3.45;1.57;;;;;;;27.80;65.17;99364.11;1789343;79;21157;-67
2021/05/21 05:21:35;;;;;;;2.60;1.62;;;;;;;28.28;62.69;99371.82;1792003;78;21564;-68
2021/05/21 05:24:02;;;;;;;3.27;1.27;;;;;;;28.76;57.52;99362.60;1759983;80;21628;-66
2021/05/21 05:26:29;;;;;;;2.92;1.10;;;;;;;28.94;55.27;99361.91;1813081;77;21019;-67
2021/05/21 05:28:57;;;;;;;1.90;1.00;;;;;;;29.12;52.11;99363.94;1790617;78;21282;-63
2021/05/21 05:31:24;;;;;;;2.90;1.05;;;;;;;29.24;52.28;99359.95;1788350;78;21068;-70
2021/05/21 05:33:51;;;;;;;2.27;0.98;;;;;;;29.16;50.74;99360.82;1785804;78;21084;-62
2021/05/21 05:36:17;;;;;;;2.10;0.80;;;;;;;28.91;50.89;99367.16;1788508;78;21114;-67
2021/05/21 05:38:44;;;;;;;3.27;1.00;;;;;;;28.69;51.44;99356.19;1788205;78;20991;-62
2021/05/21 05:41:10;;;;;;;4.37;1.12;;;;;;;28.70;53.44;99361.77;1790195;78;21102;-66
2021/05/21 05:43:37;;;;;;;2.58;1.10;;;;;;;28.55;51.23;99352.39;1787858;78;21044;-68
2021/05/21 05:46:05;;;;;;;2.98;1.40;;;;;;;28.22;55.40;99355.68;1789169;78;20925;-67
2021/05/21 05:48:33;;;;;;;2.30;1.22;;;;;;;28.06;55.41;99355.99;1785894;78;21198;-67
2021/05/21 05:51:00;;;;;;;2.15;0.90;;;;;;;28.13;59.64;99354.94;1755135;81;20866;-67
2021/05/21 05:53:26;;;;;;;8.60;1.90;;;;;;;28.67;53.70;99352.47;1814776;77;21044;-67
2021/05/21 05:55:53;;;;;;;2.35;1.27;;;;;;;28.84;53.50;99358.29;1789993;78;21032;-63
2021/05/21 05:58:19;;;;;;;3.42;1.57;;;;;;;29.05;52.31;99366.36;1814521;77;20976;-68
2021/05/21 06:00:46;;;;;;;2.72;1.70;;;;;;;29.29;48.47;99361.11;1781609;78;21197;-69
2021/05/21 06:03:13;;;;;;;2.98;1.87;;;;;;;29.62;45.99;99364.93;1812396;77;20907;-62
2021/05/21 06:05:40;;;;;;;3.05;1.70;;;;;;;29.34;45.87;99356.88;1814040;78;21137;-69
2021/05/21 06:08:07;;;;;;;10.63;1.80;;;;;;;29.02;48.51;99346.91;1785324;78;20961;-63
2021/05/21 06:10:36;;;;;;;2.67;1.20;;;;;;;28.91;48.07;99347.05;1811353;77;22679;-67
2021/05/21 06:13:07;;;;;;;3.98;1.60;;;;;;;28.87;51.14;99357.64;1784335;78;20945;-67
2021/05/21 06:15:34;;;;;;;3.77;1.45;;;;;;;29.14;48.80;99350.20;1809525;77;21063;-65
2021/05/21 06:18:01;;;;;;;4.95;1.55;;;;;;;29.66;48.14;99359.90;1785740;78;21161;-64
2021/05/21 06:20:29;;;;;;;2.95;1.77;;;;;;;30.03;44.08;99351.91;1810674;77;20941;-66
2021/05/21 06:22:55;;;;;;;4.33;1.30;;;;;;;30.22;44.22;99357.55;1787912;78;21032;-66
2021/05/21 06:25:27;;;;;;;2.35;1.30;;;;;;;30.27;44.06;99348.49;1816600;77;21087;-65
2021/05/21 06:27:51;;;;;;;2.40;1.30;;;;;;;30.54;42.67;99345.66;1789942;78;21041;-67
2021/05/21 06:30:19;;;;;;;3.12;1.42;;;;;;;30.86;43.01;99353.34;1818421;77;21075;-62
2021/05/21 06:32:48;;;;;;;3.02;1.40;;;;;;;30.94;41.79;99348.95;1790681;78;21684;-65
2021/05/21 06:35:16;;;;;;;2.50;1.30;;;;;;;31.08;41.83;99341.28;1816041;77;21470;-64
2021/05/21 06:37:43;;;;;;;3.52;1.20;;;;;;;31.45;41.03;99345.98;1789985;78;21167;-66
2021/05/21 06:40:12;;;;;;;4.60;1.22;;;;;;;31.77;39.29;99350.62;1818748;77;21007;-61
2021/05/21 06:42:38;;;;;;;5.03;1.62;;;;;;;31.99;38.48;99351.39;1789292;78;21605;-66
2021/05/21 06:45:06;;;;;;;5.67;1.22;;;;;;;32.19;38.79;99348.97;1757985;80;21370;-67
2021/05/21 06:47:33;;;;;;;2.58;1.20;;;;;;;32.25;37.30;99354.91;1814653;77;21093;-69
2021/05/21 06:50:00;;;;;;;3.20;1.10;;;;;;;32.30;36.95;99351.92;1816314;77;21620;-69
2021/05/21 06:52:27;;;;;;;3.33;1.30;;;;;;;32.22;36.58;99348.28;1817527;77;21051;-62
2021/05/21 06:54:54;;;;;;;2.35;1.00;;;;;;;31.78;36.88;99353.52;1790207;78;21133;-67
2021/05/21 06:57:22;;;;;;;3.00;1.20;;;;;;;30.85;39.18;99345.06;1816094;77;21076;-67
2021/05/21 06:59:49;;;;;;;2.50;1.00;;;;;;;30.53;41.64;99346.23;1791629;78;20937;-66
2021/05/21 07:02:16;;;;;;;2.75;1.12;;;;;;;30.76;41.11;99339.83;1808870;77;21020;-62
2021/05/21 07:04:43;;;;;;;1.95;1.10;;;;;;;31.04;40.40;99344.44;1774371;79;21028;-64
2021/05/21 07:07:10;;;;;;;1.92;1.00;;;;;;;31.21;40.10;99342.79;1774526;79;22294;-63
2021/05/21 07:09:37;;;;;;;3.92;1.35;;;;;;;31.01;39.69;99351.28;1777948;79;20942;-67
2021/05/21 07:12:05;;;;;;;3.02;1.57;;;;;;;30.34;40.77;99351.94;1776990;79;20949;-69
2021/05/21 07:14:33;;;;;;;3.02;1.75;;;;;;;29.64;43.70;99346.03;1778100;79;20969;-68
2021/05/21 07:17:03;;;;;;;2.08;1.40;;;;;;;29.22;47.43;99350.12;1777680;79;20964;-66
2021/05/21 07:19:30;;;;;;;2.12;1.40;;;;;;;28.80;51.01;99350.11;1773993;79;21080;-67
2021/05/21 07:21:57;;;;;;;4.03;1.62;;;;;;;28.68;52.53;99348.70;1776219;79;21014;-67
2021/05/21 07:24:23;;;;;;;2.17;1.30;;;;;;;28.94;51.63;99357.09;1771120;79;21064;-67
2021/05/21 07:26:51;;;;;;;2.12;1.50;;;;;;;29.18;48.43;99365.88;1773216;79;20946;-67
2021/05/21 07:29:18;;;;;;;2.60;1.70;;;;;;;29.18;51.19;99368.56;1768981;79;20977;-61
2021/05/21 07:31:45;;;;;;;2.40;1.72;;;;;;;29.42;51.89;99367.87;1777157;79;21087;-68
2021/05/21 07:34:12;;;;;;;2.15;1.50;;;;;;;29.56;48.59;99369.70;1772719;79;21669;-65
2021/05/21 07:36:38;;;;;;;2.98;1.32;;;;;;;29.54;48.86;99372.70;1766390;79;20992;-67
2021/05/21 07:39:06;;;;;;;3.10;1.50;;;;;;;29.69;52.44;99374.02;1771227;79;21187;-67
2021/05/21 07:41:33;;;;;;;2.65;1.20;;;;;;;30.00;45.51;99365.48;1776706;79;20991;-65
2021/05/21 07:43:59;;;;;;;4.62;1.57;;;;;;;30.28;45.90;99376.37;1774312;79;21092;-68
2021/05/21 07:46:26;;;;;;;1.90;1.30;;;;;;;30.63;45.59;99371.08;1776875;79;20989;-63
2021/05/21 07:48:56;;;;;;;3.87;1.50;;;;;;;31.02;42.49;99354.19;1775682;79;21051;-68
2021/05/21 07:51:23;;;;;;;3.80;1.40;;;;;;;31.24;41.99;99351.53;1776358;79;20957;-66
2021/05/21 07:53:49;;;;;;;2.42;1.40;;;;;;;31.44;41.48;99351.16;1774081;79;20977;-68
2021/05/21 07:56:16;;;;;;;2.75;1.37;;;;;;;31.59;39.49;99357.67;1776878;79;21609;-67
2021/05/21 07:58:43;;;;;;;2.87;1.37;;;;;;;31.68;39.17;99362.35;1775564;79;21085;-66
2021/05/21 08:01:09;;;;;;;3.47;1.40;;;;;;;32.08;38.35;99368.16;1776345;79;21528;-67
2021/05/21 08:03:36;;;;;;;3.35;1.32;;;;;;;32.34;37.89;99370.31;1803616;77;21644;-62
2021/05/21 08:06:05;;;;;;;3.75;1.40;;;;;;;32.48;38.01;99369.90;1788990;78;22094;-66
2021/05/21 08:08:32;;;;;;;3.50;1.50;;;;;;;32.65;36.71;99376.81;1816634;77;21089;-65
2021/05/21 08:11:03;;;;;;;3.17;1.52;;;;;;;32.52;37.21;99378.85;1815968;77;20979;-66
2021/05/21 08:13:30;;;;;;;3.70;1.50;;;;;;;32.04;37.96;99382.13;1792315;78;21032;-62
2021/05/21 08:15:58;;;;;;;3.37;1.30;;;;;;;31.87;39.00;99381.13;1818251;77;21058;-67
2021/05/21 08:18:24;;;;;;;3.37;1.50;;;;;;;31.83;37.99;99385.05;1792171;78;20929;-67
2021/05/21 08:20:52;;;;;;;4.22;1.90;;;;;;;31.48;38.58;99376.27;1818867;77;21610;-61
2021/05/21 08:23:18;;;;;;;4.67;1.62;;;;;;;31.23;39.47;99380.94;1792342;78;20926;-64
2021/05/21 08:25:45;;;;;;;2.40;1.60;;;;;;;30.98;41.44;99390.20;1815323;77;20936;-65
2021/05/21 08:28:13;;;;;;;4.58;1.70;;;;;;;30.92;41.39;99387.55;1818383;77;21071;-65
2021/05/21 08:30:40;;;;;;;2.37;1.42;;;;;;;30.95;40.12;99388.19;1817354;77;20957;-67
2021/05/21 08:33:09;;;;;;;2.70;1.50;;;;;;;31.07;40.37;99388.18;1789131;78;21234;-66
2021/05/21 08:35:35;;;;;;;1.72;1.27;;;;;;;31.40;41.99;99388.52;1816810;77;22151;-64
2021/05/21 08:38:02;;;;;;;3.17;1.57;;;;;;;31.59;39.46;99389.22;1789883;78;21155;-67
2021/05/21 08:40:36;;;;;;;4.62;1.60;;;;;;;31.83;39.29;99391.80;1818250;77;20980;-68
2021/05/21 08:42:58;;;;;;;2.62;1.55;;;;;;;32.17;40.62;99397.09;1790059;78;20988;-68
2021/05/21 08:45:28;;;;;;;3.65;1.55;;;;;;;32.15;38.96;99393.95;1817008;77;21135;-67
2021/05/21 08:47:55;;;;;;;4.08;1.30;;;;;;;31.60;39.80;99399.67;1788921;78;21007;-68
2021/05/21 08:50:22;;;;;;;2.55;1.22;;;;;;;30.99;40.90;99399.30;1822171;77;21245;-68
2021/05/21 08:52:49;;;;;;;3.20;1.82;;;;;;;30.35;43.36;99408.65;1790840;78;21483;-67
2021/05/21 08:55:16;;;;;;;3.08;1.50;;;;;;;29.87;44.91;99417.61;1755436;80;21179;-66
2021/05/21 08:57:44;;;;;;;4.03;1.50;;;;;;;29.71;44.97;99412.09;1789038;78;21158;-60
2021/05/21 09:00:11;;;;;;;3.40;1.37;;;;;;;29.67;48.82;99413.87;1817572;77;21079;-66
2021/05/21 09:02:39;;;;;;;1.55;1.30;;;;;;;29.62;50.35;99417.30;1810195;77;21039;-67
2021/05/21 09:05:10;;;;;;;2.83;1.25;;;;;;;29.63;54.08;99414.30;1802324;79;21228;-68
2021/05/21 09:07:40;;;;;;;1.45;1.12;;;;;;;29.79;50.62;99420.61;1802860;79;21003;-61
2021/05/21 09:10:17;;;;;;;2.62;1.57;;;;;;;29.58;49.87;99420.64;1804350;79;21617;-65
2021/05/21 09:12:48;;;;;;;2.98;1.65;;;;;;;29.28;53.06;99421.29;1802347;79;20951;-66
2021/05/21 09:15:23;;;;;;;3.37;1.75;;;;;;;29.02;54.34;99416.11;1801517;79;21138;-60
2021/05/21 09:17:57;;;;;;;3.20;1.92;;;;;;;29.59;53.87;99420.11;1799124;79;21643;-69
2021/05/21 09:20:34;;;;;;;2.98;1.80;;;;;;;29.84;52.07;99417.48;1798598;79;21588;-64
2021/05/21 09:23:08;;;;;;;2.87;1.50;;;;;;;29.84;52.07;99417.48;1794819;79;21113;-61
2021/05/21 09:25:48;;;;;;;2.42;1.82;;;;;;;30.27;52.55;99425.11;1795642;79;21508;-67
2021/05/21 09:28:37;;;;;;;2.80;1.65;;;;;;;30.57;49.33;99423.53;1796620;79;20990;-67
2021/05/21 09:31:19;;;;;;;2.98;1.75;;;;;;;30.30;51.48;99423.08;1795106;79;21641;-66
2021/05/21 09:33:49;;;;;;;4.60;1.82;;;;;;;29.64;50.72;99423.14;1801363;79;21088;-66
2021/05/21 09:36:31;;;;;;;3.08;2.00;;;;;;;28.79;54.20;99413.45;1802704;79;21069;-61
2021/05/21 09:38:59;;;;;;;2.33;1.30;;;;;;;28.34;57.89;99427.39;1796080;79;21024;-67
2021/05/21 09:41:26;;;;;;;4.47;2.17;;;;;;;27.80;63.92;99419.02;1798637;79;20949;-66
2021/05/21 09:43:59;;;;;;;5.15;1.70;;;;;;;27.69;71.29;99415.06;1802484;79;21034;-68
2021/05/21 09:46:41;;;;;;;3.17;1.40;;;;;;;27.61;74.67;99413.41;1802567;79;21632;-65
2021/05/21 09:49:34;;;;;;;4.42;1.45;;;;;;;27.75;72.06;99416.51;1803725;79;21062;-67
2021/05/21 09:52:09;;;;;;;3.33;1.52;;;;;;;27.65;72.70;99424.27;1798924;79;21060;-67
2021/05/21 09:54:55;;;;;;;2.95;1.37;;;;;;;27.30;72.44;99425.62;1802281;79;21367;-65
2021/05/21 09:57:35;;;;;;;5.12;1.87;;;;;;;26.98;77.95;99425.50;1803422;79;22270;-60
2021/05/21 10:00:06;;;;;;;4.60;1.90;;;;;;;26.73;77.60;99429.69;1800917;79;20969;-66
2021/05/21 10:02:33;;;;;;;2.70;1.60;;;;;;;26.68;80.30;99433.29;1801279;79;21038;-68
2021/05/21 10:05:01;;;;;;;2.75;1.50;;;;;;;26.80;85.22;99436.70;1794219;79;21035;-67
2021/05/21 10:07:28;;;;;;;4.22;1.90;;;;;;;27.08;81.39;99431.09;1794983;79;20995;-66
2021/05/21 10:09:55;;;;;;;4.28;2.10;;;;;;;27.48;76.76;99421.63;1796210;79;22508;-66
2021/05/21 10:12:22;;;;;;;2.77;1.57;;;;;;;27.64;69.53;99421.37;1796738;79;21000;-66
2021/05/21 10:14:51;;;;;;;2.67;1.52;;;;;;;27.73;68.58;99426.18;1798230;79;20876;-67
2021/05/21 10:17:22;;;;;;;3.87;1.82;;;;;;;28.00;70.07;99422.92;1800841;79;20904;-61
2021/05/21 10:19:49;;;;;;;4.37;2.30;;;;;;;28.38;67.44;99422.20;1800459;79;21007;-67
2021/05/21 10:22:26;;;;;;;4.17;2.15;;;;;;;28.58;64.14;99416.89;1803580;79;20906;-67
2021/05/21 10:24:56;;;;;;;2.95;1.67;;;;;;;28.58;63.75;99417.44;1780191;79;21048;-66
2021/05/21 10:27:26;;;;;;;4.07;2.13;;;;;;;28.60;61.43;99422.72;1803070;77;21688;-60
2021/05/21 10:30:04;;;;;;;;;;;;;;;28.69;63.80;99415.19;1806352;79;21027;-63
2021/05/21 10:32:31;;;;;;;3.15;1.85;;;;;;;28.95;60.89;99406.98;1804382;79;20243;-67
2021/05/21 10:35:19;;;;;;;4.95;1.70;;;;;;;29.02;59.58;99416.67;1802573;79;21686;-65
2021/05/21 10:38:22;;;;;;;4.35;2.00;;;;;;;29.19;62.84;99418.43;1785974;79;20964;-66
2021/05/21 10:41:15;;;;;;;2.85;1.60;;;;;;;29.58;56.42;99426.01;1802280;79;21115;-65
2021/05/21 10:43:52;;;;;;;5.83;1.82;;;;;;;29.80;51.57;99415.45;1798546;79;21645;-65
2021/05/21 10:46:22;;;;;;;3.05;1.80;;;;;;;29.76;51.88;99413.21;1789791;79;21059;-64
2021/05/21 10:48:59;;;;;;;4.42;1.90;;;;;;;29.67;52.41;99421.92;1792766;77;21003;-63
2021/05/21 10:51:28;;;;;;;5.47;2.33;;;;;;;29.68;50.01;99420.80;1802010;79;21557;-66
2021/05/21 10:54:31;;;;;;;6.10;1.80;;;;;;;29.64;51.55;99416.42;1801723;79;20979;-63
2021/05/21 10:57:17;;;;;;;3.85;2.00;;;;;;;29.43;57.93;99415.06;1803917;79;21024;-60
2021/05/21 10:59:55;;;;;;;6.53;1.80;;;;;;;29.30;58.73;99416.36;1802921;79;20912;-66
2021/05/21 11:02:25;;;;;;;3.50;1.90;;;;;;;29.15;58.84;99420.20;1805609;79;20952;-63
2021/05/21 11:04:52;;;;;;;3.65;1.80;;;;;;;29.06;58.17;99422.95;1803049;78;20904;-60
2021/05/21 11:07:42;;;;;;;4.55;1.98;;;;;;;28.88;60.12;99418.22;1800707;79;21028;-67
2021/05/21 11:10:35;;;;;;;4.40;2.10;;;;;;;28.79;63.96;99412.92;1801779;79;20922;-67
2021/05/21 11:13:16;;;;;;;4.00;1.80;;;;;;;28.67;59.19;99426.22;1798506;79;21040;-68
2021/05/21 11:15:47;;;;;;;3.87;1.70;;;;;;;28.70;60.92;99418.09;1801279;79;20960;-66
2021/05/21 11:18:25;;;;;;;4.47;1.77;;;;;;;28.80;59.41;99422.53;1803333;79;21031;-64
2021/05/21 11:21:12;;;;;;;2.80;1.52;;;;;;;28.94;60.32;99414.78;1802364;79;21110;-68
2021/05/21 11:23:50;;;;;;;4.22;2.02;;;;;;;29.08;59.35;99420.72;1803016;78;21443;-65
2021/05/21 11:26:22;;;;;;;6.72;2.60;;;;;;;29.16;57.41;99421.77;1803218;79;20995;-67
2021/05/21 11:28:57;;;;;;;4.28;2.08;;;;;;;29.18;59.19;99425.70;1802560;79;21004;-65
2021/05/21 11:31:32;;;;;;;5.03;1.77;;;;;;;29.20;62.86;99431.52;1802846;79;21648;-61
2021/05/21 11:34:01;;;;;;;7.22;2.10;;;;;;;29.18;57.90;99426.27;1802629;79;21146;-67
2021/05/21 11:36:34;;;;;;;3.02;1.60;;;;;;;28.95;62.79;99425.76;1799276;79;21026;-65
2021/05/21 11:39:03;;;;;;;4.65;2.10;;;;;;;28.95;61.45;99427.10;1803852;79;22609;-68
2021/05/21 11:41:43;;;;;;;4.28;1.95;;;;;;;28.87;61.09;99427.39;1803304;79;20948;-61